createdAt,value
2022-10-30T00:00:21.400Z,0.00
2022-10-30T00:01:21.448Z,0.00
2022-10-30T00:02:21.415Z,0.00
2022-10-30T00:03:21.385Z,0.00
2022-10-30T00:04:21.356Z,0.00
2022-10-30T00:05:21.346Z,0.00
2022-10-30T00:06:21.340Z,0.00
2022-10-30T00:07:21.315Z,0.00
2022-10-30T00:08:21.318Z,0.00
2022-10-30T00:09:21.292Z,0.00
2022-10-30T00:10:21.292Z,0.00
2022-10-30T00:11:21.273Z,0.00
2022-10-30T00:12:21.283Z,0.00
2022-10-30T00:13:21.270Z,0.00
2022-10-30T00:14:21.248Z,0.00
2022-10-30T00:15:21.225Z,0.00
2022-10-30T00:16:21.225Z,0.00
2022-10-30T00:17:21.205Z,0.00
2022-10-30T00:18:21.242Z,0.00
2022-10-30T00:19:21.182Z,0.00
2022-10-30T00:20:21.179Z,0.00
2022-10-30T00:21:21.158Z,0.00
2022-10-30T00:22:21.151Z,0.00
2022-10-30T00:23:21.137Z,0.00
2022-10-30T00:24:21.154Z,0.00
2022-10-30T00:25:21.116Z,0.00
2022-10-30T00:26:21.111Z,0.00
2022-10-30T00:27:21.091Z,0.00
2022-10-30T00:28:21.114Z,0.00
2022-10-30T00:29:21.088Z,0.00
2022-10-30T00:30:21.069Z,0.00
2022-10-30T00:31:21.050Z,0.00
2022-10-30T00:32:21.038Z,0.00
2022-10-30T00:33:21.024Z,0.00
2022-10-30T00:34:21.043Z,0.00
2022-10-30T00:35:21.005Z,0.00
2022-10-30T00:36:20.995Z,0.00
2022-10-30T00:37:20.986Z,0.00
2022-10-30T00:38:20.971Z,0.00
2022-10-30T00:39:20.974Z,0.00
2022-10-30T00:40:20.949Z,0.00
2022-10-30T00:41:20.943Z,0.00
2022-10-30T00:42:20.935Z,0.00
2022-10-30T00:43:20.916Z,0.00
2022-10-30T00:44:20.944Z,0.00
2022-10-30T00:45:20.907Z,0.00
2022-10-30T00:46:20.889Z,0.00
2022-10-30T00:47:20.876Z,0.00
2022-10-30T00:48:20.867Z,0.00
2022-10-30T00:49:20.854Z,0.00
2022-10-30T00:50:20.919Z,0.00
2022-10-30T00:51:20.832Z,0.00
2022-10-30T00:52:20.825Z,0.00
2022-10-30T00:53:20.811Z,0.00
2022-10-30T00:54:20.795Z,0.00
2022-10-30T00:55:20.798Z,0.00
2022-10-30T00:56:20.783Z,0.00
2022-10-30T00:57:20.766Z,0.00
2022-10-30T00:58:20.765Z,0.00
2022-10-30T00:59:20.737Z,0.00
2022-10-30T01:00:20.804Z,0.00
2022-10-30T01:01:20.914Z,0.00
2022-10-30T01:02:20.841Z,0.00
2022-10-30T01:03:20.709Z,0.00
2022-10-30T01:04:21.818Z,0.00
2022-10-30T01:05:20.669Z,0.00
2022-10-30T01:06:20.673Z,0.00
2022-10-30T01:07:20.670Z,0.00
2022-10-30T01:08:20.756Z,0.00
2022-10-30T01:09:20.728Z,0.00
2022-10-30T01:10:20.615Z,0.00
2022-10-30T01:11:20.629Z,0.00
2022-10-30T01:12:20.593Z,0.00
2022-10-30T01:13:20.583Z,0.00
2022-10-30T01:14:20.574Z,0.00
2022-10-30T01:15:20.566Z,0.00
2022-10-30T01:16:20.586Z,0.00
2022-10-30T01:17:20.538Z,0.00
2022-10-30T01:18:20.533Z,0.00
2022-10-30T01:19:20.519Z,0.00
2022-10-30T01:20:20.508Z,0.00
2022-10-30T01:21:20.507Z,0.00
2022-10-30T01:22:20.481Z,0.00
2022-10-30T01:23:20.469Z,0.00
2022-10-30T01:24:20.470Z,0.00
2022-10-30T01:25:20.458Z,0.00
2022-10-30T01:26:20.450Z,0.00
2022-10-30T01:27:20.435Z,0.00
2022-10-30T01:28:20.427Z,0.00
2022-10-30T01:29:20.409Z,0.00
2022-10-30T01:30:20.402Z,0.00
2022-10-30T01:31:20.409Z,0.00
2022-10-30T01:32:20.395Z,0.00
2022-10-30T01:33:20.364Z,0.00
2022-10-30T01:34:20.351Z,0.00
2022-10-30T01:35:20.337Z,0.00
2022-10-30T01:36:20.348Z,0.00
2022-10-30T01:37:20.325Z,0.00
2022-10-30T01:38:20.305Z,0.00
2022-10-30T01:39:20.318Z,0.00
2022-10-30T01:40:20.301Z,0.00
2022-10-30T01:41:20.298Z,0.00
2022-10-30T01:42:20.267Z,0.00
2022-10-30T01:43:20.256Z,0.00
2022-10-30T01:44:20.245Z,0.00
2022-10-30T01:45:20.229Z,0.00
2022-10-30T01:46:20.227Z,0.00
2022-10-30T01:47:20.208Z,0.00
2022-10-30T01:48:20.214Z,0.00
2022-10-30T01:49:20.213Z,0.00
2022-10-30T01:50:20.175Z,0.00
2022-10-30T01:51:20.172Z,0.00
2022-10-30T01:52:20.146Z,0.00
2022-10-30T01:53:20.141Z,0.00
2022-10-30T01:54:20.123Z,0.00
2022-10-30T01:55:20.124Z,0.00
2022-10-30T01:56:20.128Z,0.00
2022-10-30T01:57:20.095Z,0.00
2022-10-30T01:58:20.089Z,0.00
2022-10-30T01:59:20.072Z,0.00
2022-10-30T02:00:20.057Z,0.00
2022-10-30T02:01:20.179Z,0.00
2022-10-30T02:02:20.163Z,0.00
2022-10-30T02:03:20.033Z,0.00
2022-10-30T02:04:20.040Z,0.00
2022-10-30T02:05:20.007Z,0.00
2022-10-30T02:06:19.989Z,0.00
2022-10-30T02:07:19.994Z,0.00
2022-10-30T02:08:19.965Z,0.00
2022-10-30T02:09:19.952Z,0.00
2022-10-30T02:10:19.953Z,0.00
2022-10-30T02:11:19.941Z,0.00
2022-10-30T02:12:19.935Z,0.00
2022-10-30T02:13:19.909Z,0.00
2022-10-30T02:14:19.908Z,0.00
2022-10-30T02:15:19.886Z,0.00
2022-10-30T02:16:19.881Z,0.00
2022-10-30T02:17:19.894Z,0.00
2022-10-30T02:18:19.864Z,0.00
2022-10-30T02:19:19.849Z,0.00
2022-10-30T02:20:19.854Z,0.00
2022-10-30T02:21:19.825Z,0.00
2022-10-30T02:22:19.991Z,0.00
2022-10-30T02:23:19.801Z,0.00
2022-10-30T02:24:19.794Z,0.00
2022-10-30T02:25:19.780Z,0.00
2022-10-30T02:26:19.772Z,0.00
2022-10-30T02:27:19.773Z,0.00
2022-10-30T02:28:19.746Z,0.00
2022-10-30T02:29:19.734Z,0.00
2022-10-30T02:30:19.717Z,0.00
2022-10-30T02:31:19.716Z,0.00
2022-10-30T02:32:19.710Z,0.00
2022-10-30T02:33:19.695Z,0.00
2022-10-30T02:34:19.677Z,0.00
2022-10-30T02:35:19.666Z,0.00
2022-10-30T02:36:19.679Z,0.00
2022-10-30T02:37:19.651Z,0.00
2022-10-30T02:38:19.627Z,0.00
2022-10-30T02:39:19.623Z,0.00
2022-10-30T02:40:19.621Z,0.00
2022-10-30T02:41:19.597Z,0.00
2022-10-30T02:42:19.601Z,0.00
2022-10-30T02:43:19.575Z,0.00
2022-10-30T02:44:19.564Z,0.00
2022-10-30T02:45:19.554Z,0.00
2022-10-30T02:46:19.533Z,0.00
2022-10-30T02:47:19.543Z,0.00
2022-10-30T02:48:19.514Z,0.00
2022-10-30T02:49:19.506Z,0.00
2022-10-30T02:50:19.496Z,0.00
2022-10-30T02:51:19.478Z,0.00
2022-10-30T02:52:19.781Z,0.00
2022-10-30T02:53:19.461Z,0.00
2022-10-30T02:54:19.444Z,0.00
2022-10-30T02:55:19.440Z,0.00
2022-10-30T02:56:19.422Z,0.00
2022-10-30T02:57:19.431Z,0.00
2022-10-30T02:58:19.408Z,0.00
2022-10-30T02:59:19.388Z,0.00
2022-10-30T03:00:19.385Z,0.00
2022-10-30T03:01:19.572Z,0.00
2022-10-30T03:02:19.439Z,0.00
2022-10-30T03:03:23.058Z,0.00
2022-10-30T03:04:19.331Z,0.00
2022-10-30T03:05:19.329Z,0.00
2022-10-30T03:06:19.314Z,0.00
2022-10-30T03:07:19.319Z,0.00
2022-10-30T03:08:19.316Z,0.00
2022-10-30T03:09:19.279Z,0.00
2022-10-30T03:10:19.270Z,0.00
2022-10-30T03:11:19.254Z,0.00
2022-10-30T03:12:19.264Z,0.00
2022-10-30T03:13:19.244Z,0.00
2022-10-30T03:14:19.219Z,0.00
2022-10-30T03:15:19.216Z,0.00
2022-10-30T03:16:19.255Z,0.00
2022-10-30T03:17:19.208Z,0.00
2022-10-30T03:18:19.180Z,0.00
2022-10-30T03:19:19.175Z,0.00
2022-10-30T03:20:19.166Z,0.00
2022-10-30T03:21:19.147Z,0.00
2022-10-30T03:22:19.139Z,0.00
2022-10-30T03:23:19.125Z,0.00
2022-10-30T03:24:19.131Z,0.00
2022-10-30T03:25:19.090Z,0.00
2022-10-30T03:26:19.084Z,0.00
2022-10-30T03:27:19.096Z,0.00
2022-10-30T03:28:19.057Z,0.00
2022-10-30T03:29:19.058Z,0.00
2022-10-30T03:30:19.036Z,0.00
2022-10-30T03:31:19.056Z,0.00
2022-10-30T03:32:19.159Z,0.00
2022-10-30T03:33:19.001Z,0.00
2022-10-30T03:34:18.991Z,0.00
2022-10-30T03:35:18.987Z,0.00
2022-10-30T03:36:18.972Z,0.00
2022-10-30T03:37:18.974Z,0.00
2022-10-30T03:38:18.949Z,0.00
2022-10-30T03:39:18.935Z,0.00
2022-10-30T03:40:18.955Z,0.00
2022-10-30T03:41:18.920Z,0.00
2022-10-30T03:42:18.919Z,0.00
2022-10-30T03:43:18.894Z,0.00
2022-10-30T03:44:18.875Z,0.00
2022-10-30T03:45:18.868Z,0.00
2022-10-30T03:46:18.851Z,0.00
2022-10-30T03:47:18.865Z,0.00
2022-10-30T03:48:18.830Z,0.00
2022-10-30T03:49:18.820Z,0.00
2022-10-30T03:50:18.815Z,0.00
2022-10-30T03:51:18.798Z,0.00
2022-10-30T03:52:18.810Z,0.00
2022-10-30T03:53:18.792Z,0.00
2022-10-30T03:54:18.770Z,0.00
2022-10-30T03:55:18.763Z,0.00
2022-10-30T03:56:18.763Z,0.00
2022-10-30T03:57:18.752Z,0.00
2022-10-30T03:58:18.722Z,0.00
2022-10-30T03:59:18.730Z,0.00
2022-10-30T04:00:18.702Z,0.00
2022-10-30T04:01:18.815Z,0.00
2022-10-30T04:03:18.665Z,0.00
2022-10-30T04:04:18.690Z,0.00
2022-10-30T04:05:18.649Z,0.00
2022-10-30T04:06:18.649Z,0.00
2022-10-30T04:07:18.635Z,0.00
2022-10-30T04:08:18.611Z,0.00
2022-10-30T04:09:18.630Z,0.00
2022-10-30T04:10:21.154Z,0.00
2022-10-30T04:11:19.670Z,0.00
2022-10-30T04:12:18.608Z,0.00
2022-10-30T04:13:18.553Z,0.00
2022-10-30T04:14:18.534Z,0.00
2022-10-30T04:15:18.549Z,0.00
2022-10-30T04:16:18.521Z,0.00
2022-10-30T04:17:18.508Z,0.00
2022-10-30T04:18:18.495Z,0.00
2022-10-30T04:19:18.502Z,0.00
2022-10-30T04:20:18.490Z,0.00
2022-10-30T04:21:18.466Z,0.00
2022-10-30T04:22:18.441Z,0.00
2022-10-30T04:23:18.436Z,0.00
2022-10-30T04:24:18.572Z,0.00
2022-10-30T04:25:18.414Z,0.00
2022-10-30T04:26:18.475Z,0.00
2022-10-30T04:27:18.393Z,0.00
2022-10-30T04:28:18.395Z,0.00
2022-10-30T04:29:18.370Z,0.00
2022-10-30T04:30:18.353Z,0.00
2022-10-30T04:31:18.362Z,0.00
2022-10-30T04:32:18.330Z,0.00
2022-10-30T04:33:18.324Z,0.00
2022-10-30T04:34:18.320Z,0.00
2022-10-30T04:35:18.304Z,0.00
2022-10-30T04:36:18.296Z,0.00
2022-10-30T04:37:18.275Z,0.00
2022-10-30T04:38:18.265Z,0.00
2022-10-30T04:39:18.247Z,0.00
2022-10-30T04:40:18.243Z,0.00
2022-10-30T04:41:18.248Z,0.00
2022-10-30T04:42:18.220Z,0.00
2022-10-30T04:43:18.210Z,0.00
2022-10-30T04:44:18.219Z,0.00
2022-10-30T04:45:18.194Z,0.00
2022-10-30T04:46:18.176Z,0.00
2022-10-30T04:47:18.316Z,0.00
2022-10-30T04:48:18.163Z,0.00
2022-10-30T04:49:18.137Z,0.00
2022-10-30T04:50:18.132Z,0.00
2022-10-30T04:51:18.114Z,0.00
2022-10-30T04:52:18.119Z,0.00
2022-10-30T04:53:18.121Z,0.00
2022-10-30T04:54:18.093Z,0.00
2022-10-30T04:55:18.072Z,0.00
2022-10-30T04:56:18.066Z,0.00
2022-10-30T04:57:18.050Z,0.00
2022-10-30T04:58:18.063Z,0.00
2022-10-30T04:59:18.027Z,0.00
2022-10-30T05:00:18.043Z,0.00
2022-10-30T05:01:18.121Z,0.00
2022-10-30T05:02:18.287Z,0.00
2022-10-30T05:03:18.001Z,0.00
2022-10-30T05:04:17.986Z,0.00
2022-10-30T05:05:17.963Z,0.00
2022-10-30T05:06:17.950Z,0.00
2022-10-30T05:07:17.940Z,0.00
2022-10-30T05:08:17.959Z,0.00
2022-10-30T05:09:17.916Z,0.00
2022-10-30T05:10:17.897Z,0.00
2022-10-30T05:11:17.885Z,0.00
2022-10-30T05:12:17.885Z,0.00
2022-10-30T05:13:17.891Z,0.00
2022-10-30T05:14:17.862Z,0.00
2022-10-30T05:15:17.844Z,0.00
2022-10-30T05:16:17.859Z,0.00
2022-10-30T05:17:17.923Z,0.00
2022-10-30T05:18:17.826Z,0.00
2022-10-30T05:19:17.801Z,0.00
2022-10-30T05:20:18.966Z,0.00
2022-10-30T05:21:17.782Z,0.00
2022-10-30T05:22:17.765Z,0.00
2022-10-30T05:23:17.767Z,0.00
2022-10-30T05:24:17.740Z,0.00
2022-10-30T05:25:17.731Z,0.00
2022-10-30T05:26:17.727Z,0.00
2022-10-30T05:27:17.717Z,0.00
2022-10-30T05:28:17.719Z,0.00
2022-10-30T05:29:17.703Z,0.00
2022-10-30T05:30:17.684Z,0.00
2022-10-30T05:31:17.669Z,0.00
2022-10-30T05:32:17.682Z,0.00
2022-10-30T05:33:17.664Z,0.00
2022-10-30T05:34:17.643Z,0.00
2022-10-30T05:35:17.618Z,0.00
2022-10-30T05:36:17.613Z,0.00
2022-10-30T05:37:17.600Z,0.00
2022-10-30T05:38:17.597Z,0.00
2022-10-30T05:39:17.578Z,0.00
2022-10-30T05:40:17.570Z,0.00
2022-10-30T05:41:17.569Z,0.00
2022-10-30T05:42:17.538Z,0.00
2022-10-30T05:43:17.546Z,0.00
2022-10-30T05:44:28.808Z,0.00
2022-10-30T05:45:18.522Z,0.00
2022-10-30T05:46:17.506Z,0.00
2022-10-30T05:47:17.496Z,0.00
2022-10-30T05:48:17.524Z,0.00
2022-10-30T05:49:17.475Z,0.00
2022-10-30T05:50:17.456Z,0.00
2022-10-30T05:51:17.501Z,0.00
2022-10-30T05:52:17.435Z,0.00
2022-10-30T05:53:17.446Z,4.00
2022-10-30T05:54:17.417Z,4.00
2022-10-30T05:55:17.399Z,4.00
2022-10-30T05:56:17.394Z,0.00
2022-10-30T05:57:17.388Z,4.00
2022-10-30T05:58:17.392Z,4.00
2022-10-30T05:59:17.439Z,4.00
2022-10-30T06:00:17.347Z,4.00
2022-10-30T06:01:17.381Z,4.00
2022-10-30T06:02:17.402Z,8.00
2022-10-30T06:03:17.327Z,8.00
2022-10-30T06:04:17.321Z,8.00
2022-10-30T06:05:17.295Z,12.00
2022-10-30T06:06:17.282Z,16.00
2022-10-30T06:07:17.264Z,12.00
2022-10-30T06:08:17.267Z,16.00
2022-10-30T06:09:17.260Z,20.00
2022-10-30T06:10:17.241Z,20.00
2022-10-30T06:11:17.221Z,24.00
2022-10-30T06:12:17.211Z,28.00
2022-10-30T06:13:17.212Z,28.00
2022-10-30T06:14:17.187Z,36.00
2022-10-30T06:15:17.186Z,40.00
2022-10-30T06:16:17.164Z,40.00
2022-10-30T06:17:17.153Z,48.00
2022-10-30T06:18:17.164Z,52.00
2022-10-30T06:19:18.889Z,52.00
2022-10-30T06:20:17.153Z,60.00
2022-10-30T06:21:17.122Z,64.00
2022-10-30T06:22:17.117Z,72.00
2022-10-30T06:23:17.102Z,80.00
2022-10-30T06:24:17.096Z,88.00
2022-10-30T06:25:17.080Z,96.00
2022-10-30T06:26:17.055Z,100.00
2022-10-30T06:27:17.050Z,104.00
2022-10-30T06:28:17.034Z,112.00
2022-10-30T06:29:17.053Z,124.00
2022-10-30T06:30:17.011Z,132.00
2022-10-30T06:31:17.064Z,140.00
2022-10-30T06:32:16.998Z,152.00
2022-10-30T06:33:16.983Z,168.00
2022-10-30T06:34:16.991Z,180.00
2022-10-30T06:35:16.955Z,196.00
2022-10-30T06:36:16.974Z,208.00
2022-10-30T06:37:17.021Z,220.00
2022-10-30T06:38:16.927Z,228.00
2022-10-30T06:39:16.936Z,236.00
2022-10-30T06:40:16.896Z,244.00
2022-10-30T06:41:16.901Z,256.00
2022-10-30T06:42:16.884Z,264.00
2022-10-30T06:43:16.874Z,272.00
2022-10-30T06:44:16.874Z,280.00
2022-10-30T06:45:16.862Z,292.00
2022-10-30T06:46:16.833Z,304.00
2022-10-30T06:47:16.825Z,320.00
2022-10-30T06:48:16.814Z,336.00
2022-10-30T06:49:16.812Z,352.00
2022-10-30T06:50:16.784Z,376.00
2022-10-30T06:51:16.777Z,396.00
2022-10-30T06:52:16.802Z,424.00
2022-10-30T06:53:16.757Z,452.00
2022-10-30T06:54:16.764Z,484.00
2022-10-30T06:55:16.726Z,520.00
2022-10-30T06:56:16.727Z,552.00
2022-10-30T06:57:16.713Z,584.00
2022-10-30T06:58:16.694Z,620.00
2022-10-30T06:59:16.728Z,660.00
2022-10-30T07:00:16.679Z,716.00
2022-10-30T07:01:16.721Z,776.00
2022-10-30T07:02:16.753Z,812.00
2022-10-30T07:03:16.644Z,816.00
2022-10-30T07:04:16.626Z,840.00
2022-10-30T07:05:16.641Z,1044.00
2022-10-30T07:06:16.610Z,1220.00
2022-10-30T07:07:16.594Z,1324.00
2022-10-30T07:08:16.608Z,1328.00
2022-10-30T07:09:16.570Z,1372.00
2022-10-30T07:10:16.583Z,1432.00
2022-10-30T07:11:16.566Z,1500.00
2022-10-30T07:12:16.544Z,1624.00
2022-10-30T07:13:16.669Z,1660.00
2022-10-30T07:14:16.511Z,1648.00
2022-10-30T07:15:16.522Z,1668.00
2022-10-30T07:16:16.496Z,1660.00
2022-10-30T07:17:16.500Z,1680.00
2022-10-30T07:18:16.469Z,1716.00
2022-10-30T07:19:16.469Z,1780.00
2022-10-30T07:20:16.447Z,1840.00
2022-10-30T07:21:16.458Z,1828.00
2022-10-30T07:22:16.421Z,1780.00
2022-10-30T07:23:16.412Z,1788.00
2022-10-30T07:24:16.426Z,1816.00
2022-10-30T07:25:16.397Z,1868.00
2022-10-30T07:26:16.397Z,1896.00
2022-10-30T07:27:16.366Z,1964.00
2022-10-30T07:28:16.356Z,2084.00
2022-10-30T07:29:16.347Z,2084.00
2022-10-30T07:30:16.397Z,1884.00
2022-10-30T07:31:24.051Z,1988.00
2022-10-30T07:32:17.314Z,2056.00
2022-10-30T07:33:16.306Z,2144.00
2022-10-30T07:34:16.291Z,2208.00
2022-10-30T07:35:16.285Z,2344.00
2022-10-30T07:36:16.277Z,2296.00
2022-10-30T07:37:16.278Z,2500.00
2022-10-30T07:38:16.253Z,2608.00
2022-10-30T07:39:16.237Z,2488.00
2022-10-30T07:40:16.252Z,2720.00
2022-10-30T07:41:16.215Z,2956.00
2022-10-30T07:42:16.219Z,2884.00
2022-10-30T07:43:16.203Z,3052.00
2022-10-30T07:44:16.181Z,3152.00
2022-10-30T07:45:16.178Z,3232.00
2022-10-30T07:46:16.166Z,3428.00
2022-10-30T07:47:16.171Z,3328.00
2022-10-30T07:48:16.140Z,3308.00
2022-10-30T07:49:16.137Z,3404.00
2022-10-30T07:50:16.114Z,3484.00
2022-10-30T07:51:16.107Z,3388.00
2022-10-30T07:52:17.367Z,3252.00
2022-10-30T07:53:16.102Z,3432.00
2022-10-30T07:54:16.076Z,3448.00
2022-10-30T07:55:16.064Z,3248.00
2022-10-30T07:56:16.061Z,3320.00
2022-10-30T07:57:16.032Z,3160.00
2022-10-30T07:58:16.045Z,3076.00
2022-10-30T07:59:16.008Z,3052.00
2022-10-30T08:00:16.006Z,3196.00
2022-10-30T08:01:16.118Z,3004.00
2022-10-30T08:02:16.242Z,2720.00
2022-10-30T08:03:15.978Z,2616.00
2022-10-30T08:04:16.371Z,2592.00
2022-10-30T08:05:15.937Z,2464.00
2022-10-30T08:06:15.940Z,2288.00
2022-10-30T08:07:15.923Z,2212.00
2022-10-30T08:08:15.923Z,2248.00
2022-10-30T08:09:15.936Z,2320.00
2022-10-30T08:10:15.894Z,2248.00
2022-10-30T08:11:15.872Z,2612.00
2022-10-30T08:12:15.881Z,2924.00
2022-10-30T08:13:15.863Z,3136.00
2022-10-30T08:14:15.838Z,3312.00
2022-10-30T08:15:15.840Z,3448.00
2022-10-30T08:16:15.826Z,3516.00
2022-10-30T08:17:15.809Z,3568.00
2022-10-30T08:18:15.791Z,3576.00
2022-10-30T08:19:15.803Z,3420.00
2022-10-30T08:20:15.795Z,3176.00
2022-10-30T08:21:15.761Z,2928.00
2022-10-30T08:22:15.750Z,2732.00
2022-10-30T08:23:15.751Z,2612.00
2022-10-30T08:24:15.722Z,2536.00
2022-10-30T08:25:15.733Z,2440.00
2022-10-30T08:26:15.703Z,2304.00
2022-10-30T08:27:15.690Z,2244.00
2022-10-30T08:28:15.695Z,2148.00
2022-10-30T08:29:15.669Z,2064.00
2022-10-30T08:30:15.669Z,2028.00
2022-10-30T08:31:15.641Z,2004.00
2022-10-30T08:32:15.628Z,1964.00
2022-10-30T08:33:15.622Z,1932.00
2022-10-30T08:34:15.615Z,1924.00
2022-10-30T08:35:19.607Z,1908.00
2022-10-30T08:36:15.598Z,1908.00
2022-10-30T08:37:15.576Z,1908.00
2022-10-30T08:38:15.560Z,1884.00
2022-10-30T08:39:15.553Z,1856.00
2022-10-30T08:40:15.537Z,1840.00
2022-10-30T08:41:15.553Z,1796.00
2022-10-30T08:42:15.520Z,1748.00
2022-10-30T08:43:15.503Z,1748.00
2022-10-30T08:44:15.511Z,1752.00
2022-10-30T08:45:15.480Z,1748.00
2022-10-30T08:46:15.487Z,1744.00
2022-10-30T08:47:15.511Z,1736.00
2022-10-30T08:48:15.453Z,1732.00
2022-10-30T08:49:15.451Z,1796.00
2022-10-30T08:50:15.483Z,1852.00
2022-10-30T08:51:15.442Z,1908.00
2022-10-30T08:52:15.408Z,1972.00
2022-10-30T08:53:15.395Z,2188.00
2022-10-30T08:54:15.391Z,2256.00
2022-10-30T08:55:15.380Z,2252.00
2022-10-30T08:56:15.389Z,2580.00
2022-10-30T08:57:15.352Z,2788.00
2022-10-30T08:58:15.341Z,3028.00
2022-10-30T08:59:18.675Z,3072.00
2022-10-30T09:00:16.344Z,3244.00
2022-10-30T09:01:15.432Z,3164.00
2022-10-30T09:02:15.421Z,3196.00
2022-10-30T09:03:15.280Z,3240.00
2022-10-30T09:04:15.284Z,3488.00
2022-10-30T09:05:15.253Z,3608.00
2022-10-30T09:06:15.267Z,4032.00
2022-10-30T09:07:15.230Z,4896.00
2022-10-30T09:08:15.226Z,5128.00
2022-10-30T09:09:15.204Z,5024.00
2022-10-30T09:10:15.198Z,4764.00
2022-10-30T09:11:15.181Z,4208.00
2022-10-30T09:12:15.196Z,4656.00
2022-10-30T09:13:15.169Z,5556.00
2022-10-30T09:14:15.157Z,5784.00
2022-10-30T09:15:15.147Z,5808.00
2022-10-30T09:16:15.154Z,5760.00
2022-10-30T09:17:15.145Z,5668.00
2022-10-30T09:18:15.119Z,5720.00
2022-10-30T09:19:18.705Z,6032.00
2022-10-30T09:20:15.093Z,5876.00
2022-10-30T09:21:15.079Z,4672.00
2022-10-30T09:22:15.079Z,6388.00
2022-10-30T09:23:15.049Z,7120.00
2022-10-30T09:24:15.038Z,7124.00
2022-10-30T09:25:15.053Z,7280.00
2022-10-30T09:26:18.362Z,7276.00
2022-10-30T09:27:16.025Z,7324.00
2022-10-30T09:28:15.001Z,7272.00
2022-10-30T09:29:14.983Z,7220.00
2022-10-30T09:30:14.973Z,7448.00
2022-10-30T09:31:14.960Z,6720.00
2022-10-30T09:32:14.984Z,7236.00
2022-10-30T09:33:14.939Z,7444.00
2022-10-30T09:34:15.007Z,6604.00
2022-10-30T09:35:14.914Z,5540.00
2022-10-30T09:36:18.041Z,6664.00
2022-10-30T09:37:15.916Z,7452.00
2022-10-30T09:38:14.883Z,7480.00
2022-10-30T09:39:14.868Z,7440.00
2022-10-30T09:40:14.867Z,7464.00
2022-10-30T09:41:14.848Z,7516.00
2022-10-30T09:42:14.845Z,7548.00
2022-10-30T09:43:14.864Z,7524.00
2022-10-30T09:44:14.812Z,7580.00
2022-10-30T09:45:28.702Z,7292.00
2022-10-30T09:46:15.795Z,7244.00
2022-10-30T09:47:18.196Z,7400.00
2022-10-30T09:48:15.804Z,7548.00
2022-10-30T09:49:14.770Z,7436.00
2022-10-30T09:50:14.768Z,7440.00
2022-10-30T09:51:14.737Z,7452.00
2022-10-30T09:52:14.739Z,7436.00
2022-10-30T09:53:14.737Z,7436.00
2022-10-30T09:54:14.711Z,7240.00
2022-10-30T09:55:14.706Z,7432.00
2022-10-30T09:56:14.692Z,7320.00
2022-10-30T09:57:14.679Z,7356.00
2022-10-30T09:58:14.685Z,7320.00
2022-10-30T09:59:14.658Z,7208.00
2022-10-30T10:00:14.644Z,7292.00
2022-10-30T10:01:14.770Z,7284.00
2022-10-30T10:02:14.702Z,7380.00
2022-10-30T10:03:14.628Z,7400.00
2022-10-30T10:04:14.621Z,7384.00
2022-10-30T10:05:14.590Z,7408.00
2022-10-30T10:06:14.575Z,7408.00
2022-10-30T10:07:14.566Z,7412.00
2022-10-30T10:08:14.566Z,7420.00
2022-10-30T10:09:14.536Z,7388.00
2022-10-30T10:10:14.610Z,7296.00
2022-10-30T10:11:14.522Z,7416.00
2022-10-30T10:12:14.562Z,7436.00
2022-10-30T10:13:14.514Z,6664.00
2022-10-30T10:14:14.482Z,7264.00
2022-10-30T10:15:14.469Z,7236.00
2022-10-30T10:16:14.471Z,7076.00
2022-10-30T10:17:14.483Z,7072.00
2022-10-30T10:18:14.460Z,6300.00
2022-10-30T10:19:14.457Z,6456.00
2022-10-30T10:20:14.443Z,6912.00
2022-10-30T10:21:14.404Z,6840.00
2022-10-30T10:22:14.407Z,6696.00
2022-10-30T10:23:14.388Z,6412.00
2022-10-30T10:24:19.488Z,6716.00
2022-10-30T10:25:15.361Z,6828.00
2022-10-30T10:26:14.350Z,7012.00
2022-10-30T10:27:14.495Z,6360.00
2022-10-30T10:28:14.333Z,6496.00
2022-10-30T10:29:14.334Z,6616.00
2022-10-30T10:30:14.312Z,6728.00
2022-10-30T10:31:14.292Z,6832.00
2022-10-30T10:32:14.284Z,6596.00
2022-10-30T10:33:14.318Z,6844.00
2022-10-30T10:34:14.278Z,6944.00
2022-10-30T10:35:14.258Z,6904.00
2022-10-30T10:36:14.266Z,6744.00
2022-10-30T10:37:14.230Z,7188.00
2022-10-30T10:38:14.225Z,7260.00
2022-10-30T10:39:14.221Z,6976.00
2022-10-30T10:40:14.203Z,7032.00
2022-10-30T10:41:14.185Z,6828.00
2022-10-30T10:42:14.182Z,6784.00
2022-10-30T10:43:14.168Z,6852.00
2022-10-30T10:44:14.181Z,7016.00
2022-10-30T10:45:14.149Z,6720.00
2022-10-30T10:46:14.138Z,6932.00
2022-10-30T10:47:14.133Z,7200.00
2022-10-30T10:49:14.117Z,6352.00
2022-10-30T10:50:14.099Z,6512.00
2022-10-30T10:51:14.086Z,5516.00
2022-10-30T10:52:14.085Z,6056.00
2022-10-30T10:53:14.070Z,5964.00
2022-10-30T10:54:14.069Z,6748.00
2022-10-30T10:55:14.125Z,6812.00
2022-10-30T10:56:14.028Z,7116.00
2022-10-30T10:57:14.014Z,7196.00
2022-10-30T10:58:14.004Z,6784.00
2022-10-30T10:59:13.990Z,6932.00
2022-10-30T11:00:14.001Z,6504.00
2022-10-30T11:01:14.143Z,7048.00
2022-10-30T11:02:14.114Z,6964.00
2022-10-30T11:03:14.013Z,7160.00
2022-10-30T11:04:13.936Z,7032.00
2022-10-30T11:05:13.941Z,6856.00
2022-10-30T11:06:13.942Z,6904.00
2022-10-30T11:07:13.909Z,6604.00
2022-10-30T11:08:13.908Z,6696.00
2022-10-30T11:09:13.893Z,7268.00
2022-10-30T11:10:13.890Z,7072.00
2022-10-30T11:11:13.859Z,6992.00
2022-10-30T11:12:13.868Z,6880.00
2022-10-30T11:13:13.835Z,6056.00
2022-10-30T11:14:13.838Z,6644.00
2022-10-30T11:15:13.881Z,6604.00
2022-10-30T11:16:13.800Z,7324.00
2022-10-30T11:17:13.795Z,6252.00
2022-10-30T11:18:13.787Z,6896.00
2022-10-30T11:19:13.773Z,6632.00
2022-10-30T11:20:13.757Z,6512.00
2022-10-30T11:21:13.789Z,6920.00
2022-10-30T11:22:13.734Z,6848.00
2022-10-30T11:23:13.731Z,6276.00
2022-10-30T11:24:13.741Z,6344.00
2022-10-30T11:25:13.711Z,6944.00
2022-10-30T11:26:13.718Z,5868.00
2022-10-30T11:27:13.688Z,6648.00
2022-10-30T11:28:13.672Z,6388.00
2022-10-30T11:29:13.665Z,5992.00
2022-10-30T11:30:13.656Z,6120.00
2022-10-30T11:31:13.667Z,5508.00
2022-10-30T11:32:13.626Z,6576.00
2022-10-30T11:33:13.622Z,7096.00
2022-10-30T11:34:13.611Z,7264.00
2022-10-30T11:35:13.603Z,6564.00
2022-10-30T11:36:15.701Z,6908.00
2022-10-30T11:37:13.588Z,6820.00
2022-10-30T11:38:13.576Z,6236.00
2022-10-30T11:39:13.554Z,5932.00
2022-10-30T11:40:13.559Z,6432.00
2022-10-30T11:41:13.534Z,6416.00
2022-10-30T11:42:13.556Z,6096.00
2022-10-30T11:43:13.517Z,6200.00
2022-10-30T11:44:13.504Z,6268.00
2022-10-30T11:45:13.484Z,6596.00
2022-10-30T11:46:13.480Z,6592.00
2022-10-30T11:47:13.466Z,6756.00
2022-10-30T11:48:13.791Z,6788.00
2022-10-30T11:49:13.440Z,6568.00
2022-10-30T11:50:13.432Z,6280.00
2022-10-30T11:51:13.469Z,5800.00
2022-10-30T11:52:13.415Z,6172.00
2022-10-30T11:53:13.425Z,5604.00
2022-10-30T11:54:13.390Z,5476.00
2022-10-30T11:55:13.378Z,5104.00
2022-10-30T11:56:13.381Z,4680.00
2022-10-30T11:57:13.352Z,4876.00
2022-10-30T11:58:13.357Z,4928.00
2022-10-30T11:59:13.336Z,4972.00
2022-10-30T12:00:13.318Z,4796.00
2022-10-30T12:01:13.437Z,4756.00
2022-10-30T12:02:13.478Z,4516.00
2022-10-30T12:03:13.313Z,4780.00
2022-10-30T12:04:13.276Z,4920.00
2022-10-30T12:05:13.270Z,5076.00
2022-10-30T12:06:13.258Z,4988.00
2022-10-30T12:07:13.251Z,4276.00
2022-10-30T12:08:13.260Z,4288.00
2022-10-30T12:09:13.231Z,4688.00
2022-10-30T12:10:13.209Z,4528.00
2022-10-30T12:11:13.211Z,4504.00
2022-10-30T12:12:13.211Z,4392.00
2022-10-30T12:13:13.183Z,4144.00
2022-10-30T12:14:13.189Z,4524.00
2022-10-30T12:15:13.158Z,4496.00
2022-10-30T12:16:13.148Z,4896.00
2022-10-30T12:17:13.142Z,4728.00
2022-10-30T12:18:13.121Z,4740.00
2022-10-30T12:19:13.130Z,5108.00
2022-10-30T12:20:13.106Z,5244.00
2022-10-30T12:21:13.087Z,5208.00
2022-10-30T12:22:13.083Z,4912.00
2022-10-30T12:23:13.066Z,4844.00
2022-10-30T12:24:13.088Z,4648.00
2022-10-30T12:25:13.052Z,4528.00
2022-10-30T12:26:13.036Z,4592.00
2022-10-30T12:27:16.832Z,4836.00
2022-10-30T12:28:14.028Z,4532.00
2022-10-30T12:29:13.021Z,4168.00
2022-10-30T12:30:13.007Z,3700.00
2022-10-30T12:31:12.985Z,3440.00
2022-10-30T12:32:12.983Z,3336.00
2022-10-30T12:33:12.956Z,3304.00
2022-10-30T12:34:12.963Z,3444.00
2022-10-30T12:35:12.939Z,3244.00
2022-10-30T12:36:12.928Z,3296.00
2022-10-30T12:37:12.912Z,3480.00
2022-10-30T12:38:12.903Z,3660.00
2022-10-30T12:39:12.912Z,3904.00
2022-10-30T12:40:12.877Z,4032.00
2022-10-30T12:41:12.883Z,3848.00
2022-10-30T12:42:12.856Z,3904.00
2022-10-30T12:43:12.845Z,3788.00